sensor_id;sensor_type;location;lat;lon;timestamp;P1;durP1;ratioP1;P2;durP2;ratioP2
22034;SDS011;11181;51.002;4.356;2022-07-23T00:02:21;10.17;;;7.47;;
22034;SDS011;11181;51.002;4.356;2022-07-23T00:04:48;14.47;;;7.83;;
22034;SDS011;11181;51.002;4.356;2022-07-23T00:07:15;9.03;;;7.10;;
22034;SDS011;11181;51.002;4.356;2022-07-23T00:09:42;9.83;;;6.13;;
22034;SDS011;11181;51.002;4.356;2022-07-23T00:12:09;10.17;;;7.67;;
22034;SDS011;11181;51.002;4.356;2022-07-23T00:14:37;8.50;;;7.53;;
22034;SDS011;11181;51.002;4.356;2022-07-23T00:17:04;8.20;;;7.03;;
22034;SDS011;11181;51.002;4.356;2022-07-23T00:19:31;8.67;;;7.67;;
22034;SDS011;11181;51.002;4.356;2022-07-23T00:21:58;8.73;;;6.40;;
22034;SDS011;11181;51.002;4.356;2022-07-23T00:24:25;8.27;;;7.47;;
22034;SDS011;11181;51.002;4.356;2022-07-23T00:26:51;8.27;;;7.37;;
22034;SDS011;11181;51.002;4.356;2022-07-23T00:29:18;11.50;;;7.70;;
22034;SDS011;11181;51.002;4.356;2022-07-23T00:31:46;10.47;;;7.60;;
22034;SDS011;11181;51.002;4.356;2022-07-23T00:34:13;9.27;;;7.60;;
22034;SDS011;11181;51.002;4.356;2022-07-23T00:36:40;11.30;;;7.33;;
22034;SDS011;11181;51.002;4.356;2022-07-23T00:39:07;10.57;;;7.63;;
22034;SDS011;11181;51.002;4.356;2022-07-23T00:41:34;9.67;;;7.20;;
22034;SDS011;11181;51.002;4.356;2022-07-23T00:44:14;7.73;;;6.93;;
22034;SDS011;11181;51.002;4.356;2022-07-23T00:46:44;13.93;;;7.43;;
22034;SDS011;11181;51.002;4.356;2022-07-23T00:49:14;8.77;;;7.60;;
22034;SDS011;11181;51.002;4.356;2022-07-23T00:51:41;9.30;;;7.27;;
22034;SDS011;11181;51.002;4.356;2022-07-23T00:54:08;9.30;;;7.13;;
22034;SDS011;11181;51.002;4.356;2022-07-23T00:56:36;9.13;;;6.47;;
22034;SDS011;11181;51.002;4.356;2022-07-23T00:59:03;8.43;;;7.17;;
22034;SDS011;11181;51.002;4.356;2022-07-23T01:01:32;10.87;;;7.67;;
22034;SDS011;11181;51.002;4.356;2022-07-23T01:04:00;9.77;;;7.67;;
22034;SDS011;11181;51.002;4.356;2022-07-23T01:06:27;9.90;;;7.80;;
22034;SDS011;11181;51.002;4.356;2022-07-23T01:08:55;10.43;;;6.90;;
22034;SDS011;11181;51.002;4.356;2022-07-23T01:11:22;10.47;;;7.13;;
22034;SDS011;11181;51.002;4.356;2022-07-23T01:13:50;8.20;;;7.27;;
22034;SDS011;11181;51.002;4.356;2022-07-23T01:16:17;8.90;;;6.90;;
22034;SDS011;11181;51.002;4.356;2022-07-23T01:18:44;11.20;;;8.13;;
22034;SDS011;11181;51.002;4.356;2022-07-23T01:21:12;11.07;;;7.90;;
22034;SDS011;11181;51.002;4.356;2022-07-23T01:23:41;9.57;;;6.83;;
22034;SDS011;11181;51.002;4.356;2022-07-23T01:26:08;10.57;;;7.43;;
22034;SDS011;11181;51.002;4.356;2022-07-23T01:28:35;8.80;;;7.20;;
22034;SDS011;11181;51.002;4.356;2022-07-23T01:31:02;9.67;;;7.17;;
22034;SDS011;11181;51.002;4.356;2022-07-23T01:33:29;10.13;;;7.13;;
22034;SDS011;11181;51.002;4.356;2022-07-23T01:35:56;11.37;;;6.93;;
22034;SDS011;11181;51.002;4.356;2022-07-23T01:38:22;10.87;;;7.17;;
22034;SDS011;11181;51.002;4.356;2022-07-23T01:40:51;11.20;;;8.37;;
22034;SDS011;11181;51.002;4.356;2022-07-23T01:43:18;9.03;;;7.63;;
22034;SDS011;11181;51.002;4.356;2022-07-23T01:45:44;9.97;;;7.17;;
22034;SDS011;11181;51.002;4.356;2022-07-23T01:48:11;9.33;;;7.00;;
22034;SDS011;11181;51.002;4.356;2022-07-23T01:50:38;8.57;;;7.17;;
22034;SDS011;11181;51.002;4.356;2022-07-23T01:53:05;12.43;;;7.83;;
22034;SDS011;11181;51.002;4.356;2022-07-23T01:55:32;9.60;;;7.00;;
22034;SDS011;11181;51.002;4.356;2022-07-23T01:58:00;11.27;;;7.90;;
22034;SDS011;11181;51.002;4.356;2022-07-23T02:00:27;7.73;;;6.93;;
22034;SDS011;11181;51.002;4.356;2022-07-23T02:02:54;10.63;;;7.50;;
22034;SDS011;11181;51.002;4.356;2022-07-23T02:05:21;10.97;;;6.87;;
22034;SDS011;11181;51.002;4.356;2022-07-23T02:07:48;9.20;;;7.27;;
22034;SDS011;11181;51.002;4.356;2022-07-23T02:10:15;9.13;;;7.40;;
22034;SDS011;11181;51.002;4.356;2022-07-23T02:12:42;9.67;;;7.90;;
22034;SDS011;11181;51.002;4.356;2022-07-23T02:15:10;10.63;;;8.17;;
22034;SDS011;11181;51.002;4.356;2022-07-23T02:17:37;9.30;;;7.17;;
22034;SDS011;11181;51.002;4.356;2022-07-23T02:20:04;9.97;;;7.37;;
22034;SDS011;11181;51.002;4.356;2022-07-23T02:22:33;8.93;;;6.60;;
22034;SDS011;11181;51.002;4.356;2022-07-23T02:25:00;15.10;;;8.37;;
22034;SDS011;11181;51.002;4.356;2022-07-23T02:27:27;10.30;;;8.60;;
22034;SDS011;11181;51.002;4.356;2022-07-23T02:29:54;11.23;;;7.33;;
22034;SDS011;11181;51.002;4.356;2022-07-23T02:32:22;9.43;;;7.80;;
22034;SDS011;11181;51.002;4.356;2022-07-23T02:34:49;10.53;;;7.63;;
22034;SDS011;11181;51.002;4.356;2022-07-23T02:37:16;9.03;;;7.47;;
22034;SDS011;11181;51.002;4.356;2022-07-23T02:39:43;9.77;;;7.53;;
22034;SDS011;11181;51.002;4.356;2022-07-23T02:42:10;10.73;;;6.93;;
22034;SDS011;11181;51.002;4.356;2022-07-23T02:44:37;7.73;;;6.50;;
22034;SDS011;11181;51.002;4.356;2022-07-23T02:47:04;9.37;;;7.53;;
22034;SDS011;11181;51.002;4.356;2022-07-23T02:49:32;10.30;;;6.90;;
22034;SDS011;11181;51.002;4.356;2022-07-23T02:51:59;8.77;;;7.43;;
22034;SDS011;11181;51.002;4.356;2022-07-23T02:54:26;10.20;;;7.03;;
22034;SDS011;11181;51.002;4.356;2022-07-23T02:56:53;8.27;;;6.43;;
22034;SDS011;11181;51.002;4.356;2022-07-23T02:59:20;10.93;;;6.90;;
22034;SDS011;11181;51.002;4.356;2022-07-23T03:01:47;7.60;;;6.37;;
22034;SDS011;11181;51.002;4.356;2022-07-23T03:04:14;9.80;;;7.60;;
22034;SDS011;11181;51.002;4.356;2022-07-23T03:06:42;10.50;;;7.40;;
22034;SDS011;11181;51.002;4.356;2022-07-23T03:09:09;15.03;;;7.27;;
22034;SDS011;11181;51.002;4.356;2022-07-23T03:11:36;7.87;;;6.00;;
22034;SDS011;11181;51.002;4.356;2022-07-23T03:14:03;7.60;;;6.33;;
22034;SDS011;11181;51.002;4.356;2022-07-23T03:16:31;10.37;;;7.43;;
22034;SDS011;11181;51.002;4.356;2022-07-23T03:18:57;8.20;;;7.40;;
22034;SDS011;11181;51.002;4.356;2022-07-23T03:21:24;7.63;;;6.33;;
22034;SDS011;11181;51.002;4.356;2022-07-23T03:23:53;8.40;;;6.53;;
22034;SDS011;11181;51.002;4.356;2022-07-23T03:26:19;7.20;;;6.00;;
22034;SDS011;11181;51.002;4.356;2022-07-23T03:28:50;7.43;;;6.63;;
22034;SDS011;11181;51.002;4.356;2022-07-23T03:31:17;9.67;;;7.33;;
22034;SDS011;11181;51.002;4.356;2022-07-23T03:33:44;9.10;;;6.80;;
22034;SDS011;11181;51.002;4.356;2022-07-23T03:36:11;9.73;;;7.17;;
22034;SDS011;11181;51.002;4.356;2022-07-23T03:38:38;9.57;;;6.00;;
22034;SDS011;11181;51.002;4.356;2022-07-23T03:41:06;9.20;;;7.20;;
22034;SDS011;11181;51.002;4.356;2022-07-23T03:43:33;8.87;;;7.30;;
22034;SDS011;11181;51.002;4.356;2022-07-23T03:46:00;12.47;;;7.13;;
22034;SDS011;11181;51.002;4.356;2022-07-23T03:48:27;8.60;;;6.70;;
22034;SDS011;11181;51.002;4.356;2022-07-23T03:50:53;9.77;;;7.03;;
22034;SDS011;11181;51.002;4.356;2022-07-23T03:53:20;11.73;;;7.67;;
22034;SDS011;11181;51.002;4.356;2022-07-23T03:55:47;7.53;;;6.50;;
22034;SDS011;11181;51.002;4.356;2022-07-23T03:58:16;9.20;;;6.83;;
22034;SDS011;11181;51.002;4.356;2022-07-23T04:00:42;12.60;;;8.20;;
22034;SDS011;11181;51.002;4.356;2022-07-23T04:03:09;8.53;;;7.07;;
22034;SDS011;11181;51.002;4.356;2022-07-23T04:05:36;8.37;;;7.47;;
22034;SDS011;11181;51.002;4.356;2022-07-23T04:08:03;9.43;;;7.67;;
22034;SDS011;11181;51.002;4.356;2022-07-23T04:10:30;7.97;;;6.97;;
22034;SDS011;11181;51.002;4.356;2022-07-23T04:12:57;9.67;;;7.67;;
22034;SDS011;11181;51.002;4.356;2022-07-23T04:15:26;7.13;;;6.43;;
22034;SDS011;11181;51.002;4.356;2022-07-23T04:17:52;9.97;;;6.47;;
22034;SDS011;11181;51.002;4.356;2022-07-23T04:20:19;10.33;;;6.90;;
22034;SDS011;11181;51.002;4.356;2022-07-23T04:22:46;8.33;;;6.57;;
22034;SDS011;11181;51.002;4.356;2022-07-23T04:25:13;9.80;;;8.07;;
22034;SDS011;11181;51.002;4.356;2022-07-23T04:27:41;9.80;;;6.43;;
22034;SDS011;11181;51.002;4.356;2022-07-23T04:30:08;8.90;;;6.63;;
22034;SDS011;11181;51.002;4.356;2022-07-23T04:32:37;8.00;;;6.67;;
22034;SDS011;11181;51.002;4.356;2022-07-23T04:35:04;13.97;;;7.60;;
22034;SDS011;11181;51.002;4.356;2022-07-23T04:37:31;7.37;;;6.50;;
22034;SDS011;11181;51.002;4.356;2022-07-23T04:39:58;8.90;;;6.73;;
22034;SDS011;11181;51.002;4.356;2022-07-23T04:42:25;10.53;;;6.70;;
22034;SDS011;11181;51.002;4.356;2022-07-23T04:44:52;12.70;;;6.67;;
22034;SDS011;11181;51.002;4.356;2022-07-23T04:47:18;8.17;;;6.73;;
22034;SDS011;11181;51.002;4.356;2022-07-23T04:49:47;9.07;;;7.63;;
22034;SDS011;11181;51.002;4.356;2022-07-23T04:52:14;8.03;;;7.00;;
22034;SDS011;11181;51.002;4.356;2022-07-23T04:54:41;10.00;;;7.40;;
22034;SDS011;11181;51.002;4.356;2022-07-23T04:57:08;9.57;;;7.53;;
22034;SDS011;11181;51.002;4.356;2022-07-23T04:59:35;7.93;;;7.13;;
22034;SDS011;11181;51.002;4.356;2022-07-23T05:02:01;10.07;;;7.30;;
22034;SDS011;11181;51.002;4.356;2022-07-23T05:04:28;10.70;;;7.03;;
22034;SDS011;11181;51.002;4.356;2022-07-23T05:06:57;13.10;;;8.33;;
22034;SDS011;11181;51.002;4.356;2022-07-23T05:09:24;9.30;;;7.20;;
22034;SDS011;11181;51.002;4.356;2022-07-23T05:11:51;10.63;;;7.93;;
22034;SDS011;11181;51.002;4.356;2022-07-23T05:14:18;9.77;;;7.37;;
22034;SDS011;11181;51.002;4.356;2022-07-23T05:16:45;8.50;;;7.70;;
22034;SDS011;11181;51.002;4.356;2022-07-23T05:19:12;9.60;;;7.97;;
22034;SDS011;11181;51.002;4.356;2022-07-23T05:21:39;9.80;;;7.27;;
22034;SDS011;11181;51.002;4.356;2022-07-23T05:24:07;8.37;;;7.20;;
22034;SDS011;11181;51.002;4.356;2022-07-23T05:26:34;10.53;;;6.70;;
22034;SDS011;11181;51.002;4.356;2022-07-23T05:29:01;10.40;;;7.80;;
22034;SDS011;11181;51.002;4.356;2022-07-23T05:31:28;10.83;;;8.47;;
22034;SDS011;11181;51.002;4.356;2022-07-23T05:33:55;7.73;;;6.93;;
22034;SDS011;11181;51.002;4.356;2022-07-23T05:36:22;11.83;;;8.03;;
22034;SDS011;11181;51.002;4.356;2022-07-23T05:38:49;9.63;;;7.47;;
22034;SDS011;11181;51.002;4.356;2022-07-23T05:41:17;11.53;;;7.57;;
22034;SDS011;11181;51.002;4.356;2022-07-23T05:43:44;8.93;;;7.93;;
22034;SDS011;11181;51.002;4.356;2022-07-23T05:46:11;11.30;;;7.77;;
22034;SDS011;11181;51.002;4.356;2022-07-23T05:48:37;10.87;;;7.83;;
22034;SDS011;11181;51.002;4.356;2022-07-23T05:51:05;8.80;;;7.30;;
22034;SDS011;11181;51.002;4.356;2022-07-23T05:53:32;13.80;;;8.30;;
22034;SDS011;11181;51.002;4.356;2022-07-23T05:55:59;10.63;;;7.80;;
22034;SDS011;11181;51.002;4.356;2022-07-23T05:58:28;12.30;;;7.23;;
22034;SDS011;11181;51.002;4.356;2022-07-23T06:00:55;10.53;;;8.47;;
22034;SDS011;11181;51.002;4.356;2022-07-23T06:03:22;12.57;;;7.73;;
22034;SDS011;11181;51.002;4.356;2022-07-23T06:05:48;9.30;;;7.67;;
22034;SDS011;11181;51.002;4.356;2022-07-23T06:08:15;10.53;;;7.20;;
22034;SDS011;11181;51.002;4.356;2022-07-23T06:10:42;15.77;;;8.77;;
22034;SDS011;11181;51.002;4.356;2022-07-23T06:13:09;8.60;;;7.17;;
22034;SDS011;11181;51.002;4.356;2022-07-23T06:15:37;11.60;;;7.53;;
22034;SDS011;11181;51.002;4.356;2022-07-23T06:18:04;9.43;;;7.53;;
22034;SDS011;11181;51.002;4.356;2022-07-23T06:20:31;11.60;;;7.90;;
22034;SDS011;11181;51.002;4.356;2022-07-23T06:22:58;9.90;;;7.77;;
22034;SDS011;11181;51.002;4.356;2022-07-23T06:25:25;9.90;;;8.23;;
22034;SDS011;11181;51.002;4.356;2022-07-23T06:27:52;10.87;;;8.10;;
22034;SDS011;11181;51.002;4.356;2022-07-23T06:30:19;9.57;;;7.87;;
22034;SDS011;11181;51.002;4.356;2022-07-23T06:32:48;11.30;;;7.87;;
22034;SDS011;11181;51.002;4.356;2022-07-23T06:35:15;8.57;;;7.67;;
22034;SDS011;11181;51.002;4.356;2022-07-23T06:37:43;9.83;;;7.37;;
22034;SDS011;11181;51.002;4.356;2022-07-23T06:40:10;12.63;;;8.23;;
22034;SDS011;11181;51.002;4.356;2022-07-23T06:42:38;12.80;;;8.43;;
22034;SDS011;11181;51.002;4.356;2022-07-23T06:45:05;8.50;;;7.17;;
22034;SDS011;11181;51.002;4.356;2022-07-23T06:47:33;9.50;;;6.80;;
22034;SDS011;11181;51.002;4.356;2022-07-23T06:50:02;9.87;;;7.30;;
22034;SDS011;11181;51.002;4.356;2022-07-23T06:52:30;10.77;;;8.10;;
22034;SDS011;11181;51.002;4.356;2022-07-23T06:54:56;8.50;;;7.70;;
22034;SDS011;11181;51.002;4.356;2022-07-23T06:57:23;9.57;;;6.90;;
22034;SDS011;11181;51.002;4.356;2022-07-23T06:59:51;14.10;;;7.93;;
22034;SDS011;11181;51.002;4.356;2022-07-23T07:02:18;9.57;;;7.27;;
22034;SDS011;11181;51.002;4.356;2022-07-23T07:04:45;10.13;;;8.03;;
22034;SDS011;11181;51.002;4.356;2022-07-23T07:07:13;9.50;;;7.83;;
22034;SDS011;11181;51.002;4.356;2022-07-23T07:09:40;8.97;;;7.60;;
22034;SDS011;11181;51.002;4.356;2022-07-23T07:12:08;9.03;;;7.37;;
22034;SDS011;11181;51.002;4.356;2022-07-23T07:14:34;11.80;;;7.53;;
22034;SDS011;11181;51.002;4.356;2022-07-23T07:17:01;9.37;;;7.40;;
22034;SDS011;11181;51.002;4.356;2022-07-23T07:19:28;9.17;;;7.47;;
22034;SDS011;11181;51.002;4.356;2022-07-23T07:21:55;9.70;;;7.93;;
22034;SDS011;11181;51.002;4.356;2022-07-23T07:24:23;10.47;;;7.23;;
22034;SDS011;11181;51.002;4.356;2022-07-23T07:26:50;9.40;;;7.17;;
22034;SDS011;11181;51.002;4.356;2022-07-23T07:29:17;7.77;;;6.97;;
22034;SDS011;11181;51.002;4.356;2022-07-23T07:31:44;8.20;;;7.33;;
22034;SDS011;11181;51.002;4.356;2022-07-23T07:34:11;8.57;;;7.07;;
22034;SDS011;11181;51.002;4.356;2022-07-23T07:36:38;8.67;;;7.60;;
22034;SDS011;11181;51.002;4.356;2022-07-23T07:39:05;11.60;;;7.20;;
22034;SDS011;11181;51.002;4.356;2022-07-23T07:41:36;10.07;;;7.40;;
22034;SDS011;11181;51.002;4.356;2022-07-23T07:44:04;9.00;;;6.97;;
22034;SDS011;11181;51.002;4.356;2022-07-23T07:46:31;11.02;;;7.55;;
22034;SDS011;11181;51.002;4.356;2022-07-23T07:48:58;9.00;;;6.60;;
22034;SDS011;11181;51.002;4.356;2022-07-23T07:51:25;11.65;;;7.00;;
22034;SDS011;11181;51.002;4.356;2022-07-23T07:53:53;9.70;;;7.10;;
22034;SDS011;11181;51.002;4.356;2022-07-23T07:56:20;7.65;;;5.80;;
22034;SDS011;11181;51.002;4.356;2022-07-23T07:58:49;7.88;;;5.93;;
22034;SDS011;11181;51.002;4.356;2022-07-23T08:01:15;9.40;;;7.10;;
22034;SDS011;11181;51.002;4.356;2022-07-23T08:03:44;8.50;;;6.13;;
22034;SDS011;11181;51.002;4.356;2022-07-23T08:06:11;8.55;;;6.35;;
22034;SDS011;11181;51.002;4.356;2022-07-23T08:08:38;9.63;;;5.53;;
22034;SDS011;11181;51.002;4.356;2022-07-23T08:11:05;8.63;;;5.90;;
22034;SDS011;11181;51.002;4.356;2022-07-23T08:13:31;7.43;;;5.97;;
22034;SDS011;11181;51.002;4.356;2022-07-23T08:16:00;19.77;;;9.02;;
22034;SDS011;11181;51.002;4.356;2022-07-23T08:18:27;16.48;;;8.57;;
22034;SDS011;11181;51.002;4.356;2022-07-23T08:20:54;7.82;;;6.00;;
22034;SDS011;11181;51.002;4.356;2022-07-23T08:23:20;8.30;;;5.18;;
22034;SDS011;11181;51.002;4.356;2022-07-23T08:25:47;8.85;;;5.47;;
22034;SDS011;11181;51.002;4.356;2022-07-23T08:28:14;7.60;;;5.07;;
22034;SDS011;11181;51.002;4.356;2022-07-23T08:30:42;5.68;;;4.22;;
22034;SDS011;11181;51.002;4.356;2022-07-23T08:33:13;7.63;;;5.43;;
22034;SDS011;11181;51.002;4.356;2022-07-23T08:35:42;5.60;;;4.90;;
22034;SDS011;11181;51.002;4.356;2022-07-23T08:38:12;7.03;;;4.82;;
22034;SDS011;11181;51.002;4.356;2022-07-23T08:40:40;6.32;;;4.82;;
22034;SDS011;11181;51.002;4.356;2022-07-23T08:43:09;5.35;;;4.72;;
22034;SDS011;11181;51.002;4.356;2022-07-23T08:45:39;4.97;;;4.20;;
22034;SDS011;11181;51.002;4.356;2022-07-23T08:48:08;5.00;;;4.15;;
22034;SDS011;11181;51.002;4.356;2022-07-23T08:50:42;5.28;;;3.55;;
22034;SDS011;11181;51.002;4.356;2022-07-23T08:53:10;4.82;;;4.00;;
22034;SDS011;11181;51.002;4.356;2022-07-23T08:55:38;5.55;;;4.15;;
22034;SDS011;11181;51.002;4.356;2022-07-23T08:58:05;5.32;;;4.47;;
22034;SDS011;11181;51.002;4.356;2022-07-23T09:00:32;4.20;;;3.55;;
22034;SDS011;11181;51.002;4.356;2022-07-23T09:02:59;4.00;;;3.70;;
22034;SDS011;11181;51.002;4.356;2022-07-23T09:05:26;4.90;;;3.58;;
22034;SDS011;11181;51.002;4.356;2022-07-23T09:08:05;6.85;;;4.15;;
22034;SDS011;11181;51.002;4.356;2022-07-23T09:10:46;4.85;;;4.35;;
22034;SDS011;11181;51.002;4.356;2022-07-23T09:13:28;7.35;;;4.55;;
22034;SDS011;11181;51.002;4.356;2022-07-23T09:15:57;6.03;;;4.18;;
22034;SDS011;11181;51.002;4.356;2022-07-23T09:18:29;6.40;;;3.28;;
22034;SDS011;11181;51.002;4.356;2022-07-23T09:21:10;9.05;;;4.22;;
22034;SDS011;11181;51.002;4.356;2022-07-23T09:23:42;5.43;;;3.17;;
22034;SDS011;11181;51.002;4.356;2022-07-23T09:26:17;5.22;;;4.35;;
22034;SDS011;11181;51.002;4.356;2022-07-23T09:28:56;5.43;;;4.30;;
22034;SDS011;11181;51.002;4.356;2022-07-23T09:31:24;7.90;;;3.78;;
22034;SDS011;11181;51.002;4.356;2022-07-23T09:34:02;5.53;;;2.80;;
22034;SDS011;11181;51.002;4.356;2022-07-23T09:36:37;6.97;;;3.15;;
22034;SDS011;11181;51.002;4.356;2022-07-23T09:39:06;6.45;;;3.47;;
22034;SDS011;11181;51.002;4.356;2022-07-23T09:41:37;3.78;;;3.35;;
22034;SDS011;11181;51.002;4.356;2022-07-23T09:44:06;6.75;;;3.28;;
22034;SDS011;11181;51.002;4.356;2022-07-23T09:46:37;2.40;;;2.00;;
22034;SDS011;11181;51.002;4.356;2022-07-23T09:49:13;4.43;;;3.05;;
22034;SDS011;11181;51.002;4.356;2022-07-23T09:51:45;2.95;;;2.45;;
22034;SDS011;11181;51.002;4.356;2022-07-23T09:54:22;7.70;;;3.10;;
22034;SDS011;11181;51.002;4.356;2022-07-23T09:56:51;2.20;;;1.98;;
22034;SDS011;11181;51.002;4.356;2022-07-23T09:59:18;4.03;;;2.13;;
22034;SDS011;11181;51.002;4.356;2022-07-23T10:01:49;6.10;;;3.03;;
22034;SDS011;11181;51.002;4.356;2022-07-23T10:04:18;4.35;;;2.88;;
22034;SDS011;11181;51.002;4.356;2022-07-23T10:06:45;4.38;;;2.70;;
22034;SDS011;11181;51.002;4.356;2022-07-23T10:09:13;3.15;;;2.30;;
22034;SDS011;11181;51.002;4.356;2022-07-23T10:11:48;4.07;;;2.38;;
22034;SDS011;11181;51.002;4.356;2022-07-23T10:14:16;3.38;;;3.03;;
22034;SDS011;11181;51.002;4.356;2022-07-23T10:16:44;4.97;;;3.15;;
22034;SDS011;11181;51.002;4.356;2022-07-23T10:19:11;6.88;;;3.53;;
22034;SDS011;11181;51.002;4.356;2022-07-23T10:21:40;2.50;;;2.30;;
22034;SDS011;11181;51.002;4.356;2022-07-23T10:24:15;4.40;;;3.08;;
22034;SDS011;11181;51.002;4.356;2022-07-23T10:26:51;5.38;;;2.78;;
22034;SDS011;11181;51.002;4.356;2022-07-23T10:29:42;6.28;;;2.90;;
22034;SDS011;11181;51.002;4.356;2022-07-23T10:32:17;3.97;;;2.70;;
22034;SDS011;11181;51.002;4.356;2022-07-23T10:34:55;2.38;;;1.85;;
22034;SDS011;11181;51.002;4.356;2022-07-23T10:37:32;3.60;;;1.85;;
22034;SDS011;11181;51.002;4.356;2022-07-23T10:40:09;3.15;;;2.33;;
22034;SDS011;11181;51.002;4.356;2022-07-23T10:42:38;2.95;;;2.33;;
22034;SDS011;11181;51.002;4.356;2022-07-23T10:48:11;3.20;;;2.53;;
22034;SDS011;11181;51.002;4.356;2022-07-23T10:50:40;3.38;;;2.40;;
22034;SDS011;11181;51.002;4.356;2022-07-23T10:53:11;6.57;;;2.53;;
22034;SDS011;11181;51.002;4.356;2022-07-23T10:55:43;2.08;;;1.88;;
22034;SDS011;11181;51.002;4.356;2022-07-23T10:58:16;4.15;;;1.30;;
22034;SDS011;11181;51.002;4.356;2022-07-23T11:00:45;1.73;;;1.52;;
22034;SDS011;11181;51.002;4.356;2022-07-23T11:03:28;2.15;;;1.50;;
22034;SDS011;11181;51.002;4.356;2022-07-23T11:06:03;1.70;;;1.42;;
22034;SDS011;11181;51.002;4.356;2022-07-23T11:08:31;2.63;;;1.80;;
22034;SDS011;11181;51.002;4.356;2022-07-23T11:11:07;2.53;;;1.38;;
22034;SDS011;11181;51.002;4.356;2022-07-23T11:13:47;1.38;;;1.27;;
22034;SDS011;11181;51.002;4.356;2022-07-23T11:16:15;2.97;;;1.50;;
22034;SDS011;11181;51.002;4.356;2022-07-23T11:18:53;1.52;;;1.40;;
22034;SDS011;11181;51.002;4.356;2022-07-23T11:24:13;2.10;;;1.60;;
22034;SDS011;11181;51.002;4.356;2022-07-23T11:26:45;2.95;;;1.75;;
22034;SDS011;11181;51.002;4.356;2022-07-23T11:35:18;1.73;;;1.33;;
22034;SDS011;11181;51.002;4.356;2022-07-23T11:37:49;2.38;;;1.50;;
22034;SDS011;11181;51.002;4.356;2022-07-23T11:40:23;1.80;;;1.40;;
22034;SDS011;11181;51.002;4.356;2022-07-23T11:42:51;2.03;;;1.38;;
22034;SDS011;11181;51.002;4.356;2022-07-23T11:45:21;3.80;;;1.85;;
22034;SDS011;11181;51.002;4.356;2022-07-23T11:47:48;2.47;;;1.63;;
22034;SDS011;11181;51.002;4.356;2022-07-23T11:50:15;1.50;;;1.27;;
22034;SDS011;11181;51.002;4.356;2022-07-23T11:52:42;2.75;;;1.30;;
22034;SDS011;11181;51.002;4.356;2022-07-23T11:55:10;1.50;;;1.40;;
22034;SDS011;11181;51.002;4.356;2022-07-23T11:57:38;1.23;;;1.13;;
22034;SDS011;11181;51.002;4.356;2022-07-23T12:00:08;3.05;;;1.40;;
22034;SDS011;11181;51.002;4.356;2022-07-23T12:02:40;1.40;;;1.30;;
22034;SDS011;11181;51.002;4.356;2022-07-23T12:05:07;1.67;;;1.50;;
22034;SDS011;11181;51.002;4.356;2022-07-23T12:07:39;2.75;;;1.88;;
22034;SDS011;11181;51.002;4.356;2022-07-23T12:10:09;2.95;;;2.08;;
22034;SDS011;11181;51.002;4.356;2022-07-23T12:12:39;4.22;;;1.88;;
22034;SDS011;11181;51.002;4.356;2022-07-23T12:15:07;2.60;;;1.58;;
22034;SDS011;11181;51.002;4.356;2022-07-23T12:17:36;3.30;;;1.80;;
22034;SDS011;11181;51.002;4.356;2022-07-23T12:20:08;1.60;;;1.50;;
22034;SDS011;11181;51.002;4.356;2022-07-23T12:22:40;3.22;;;1.77;;
22034;SDS011;11181;51.002;4.356;2022-07-23T12:25:09;2.25;;;1.30;;
22034;SDS011;11181;51.002;4.356;2022-07-23T12:27:37;1.67;;;1.25;;
22034;SDS011;11181;51.002;4.356;2022-07-23T12:30:17;2.90;;;1.90;;
22034;SDS011;11181;51.002;4.356;2022-07-23T12:32:46;3.95;;;1.73;;
22034;SDS011;11181;51.002;4.356;2022-07-23T12:35:15;3.97;;;1.40;;
22034;SDS011;11181;51.002;4.356;2022-07-23T12:37:43;3.05;;;1.90;;
22034;SDS011;11181;51.002;4.356;2022-07-23T12:40:18;2.45;;;1.85;;
22034;SDS011;11181;51.002;4.356;2022-07-23T12:42:47;2.80;;;1.63;;
22034;SDS011;11181;51.002;4.356;2022-07-23T12:45:15;4.90;;;1.98;;
22034;SDS011;11181;51.002;4.356;2022-07-23T12:48:02;5.00;;;2.20;;
22034;SDS011;11181;51.002;4.356;2022-07-23T12:50:44;2.55;;;1.67;;
22034;SDS011;11181;51.002;4.356;2022-07-23T12:53:15;1.67;;;1.55;;
22034;SDS011;11181;51.002;4.356;2022-07-23T12:55:44;2.42;;;1.67;;
22034;SDS011;11181;51.002;4.356;2022-07-23T12:58:13;2.10;;;1.70;;
22034;SDS011;11181;51.002;4.356;2022-07-23T13:00:52;2.10;;;2.00;;
22034;SDS011;11181;51.002;4.356;2022-07-23T13:03:30;1.88;;;1.77;;
22034;SDS011;11181;51.002;4.356;2022-07-23T13:06:01;2.60;;;2.00;;
22034;SDS011;11181;51.002;4.356;2022-07-23T13:08:29;3.05;;;1.73;;
22034;SDS011;11181;51.002;4.356;2022-07-23T13:10:58;3.30;;;1.98;;
22034;SDS011;11181;51.002;4.356;2022-07-23T13:13:26;3.17;;;1.85;;
22034;SDS011;11181;51.002;4.356;2022-07-23T13:15:56;3.10;;;1.83;;
22034;SDS011;11181;51.002;4.356;2022-07-23T13:18:24;4.03;;;2.13;;
22034;SDS011;11181;51.002;4.356;2022-07-23T13:20:51;2.05;;;1.80;;
22034;SDS011;11181;51.002;4.356;2022-07-23T13:23:20;3.88;;;2.05;;
22034;SDS011;11181;51.002;4.356;2022-07-23T13:25:48;3.25;;;2.10;;
22034;SDS011;11181;51.002;4.356;2022-07-23T13:28:16;2.78;;;2.22;;
22034;SDS011;11181;51.002;4.356;2022-07-23T13:30:44;3.83;;;2.30;;
22034;SDS011;11181;51.002;4.356;2022-07-23T13:33:12;3.08;;;2.35;;
22034;SDS011;11181;51.002;4.356;2022-07-23T13:35:39;2.50;;;2.10;;
22034;SDS011;11181;51.002;4.356;2022-07-23T13:38:06;1.83;;;1.73;;
22034;SDS011;11181;51.002;4.356;2022-07-23T13:40:35;2.75;;;2.40;;
22034;SDS011;11181;51.002;4.356;2022-07-23T13:43:04;4.30;;;1.92;;
22034;SDS011;11181;51.002;4.356;2022-07-23T13:45:32;2.05;;;1.75;;
22034;SDS011;11181;51.002;4.356;2022-07-23T13:47:59;2.38;;;2.17;;
22034;SDS011;11181;51.002;4.356;2022-07-23T13:50:26;2.90;;;2.40;;
22034;SDS011;11181;51.002;4.356;2022-07-23T13:52:53;2.97;;;2.25;;
22034;SDS011;11181;51.002;4.356;2022-07-23T13:55:20;3.63;;;2.15;;
22034;SDS011;11181;51.002;4.356;2022-07-23T13:57:48;2.72;;;2.17;;
22034;SDS011;11181;51.002;4.356;2022-07-23T14:00:15;2.63;;;1.98;;
22034;SDS011;11181;51.002;4.356;2022-07-23T14:02:43;2.70;;;2.30;;
22034;SDS011;11181;51.002;4.356;2022-07-23T14:05:10;3.42;;;2.50;;
22034;SDS011;11181;51.002;4.356;2022-07-23T14:07:37;3.95;;;2.03;;
22034;SDS011;11181;51.002;4.356;2022-07-23T14:10:08;2.50;;;2.30;;
22034;SDS011;11181;51.002;4.356;2022-07-23T14:12:36;2.30;;;2.10;;
22034;SDS011;11181;51.002;4.356;2022-07-23T14:15:04;3.03;;;2.50;;
22034;SDS011;11181;51.002;4.356;2022-07-23T14:17:33;3.80;;;2.25;;
22034;SDS011;11181;51.002;4.356;2022-07-23T14:20:01;2.72;;;2.53;;
22034;SDS011;11181;51.002;4.356;2022-07-23T14:22:28;2.55;;;2.35;;
22034;SDS011;11181;51.002;4.356;2022-07-23T14:24:55;3.33;;;2.33;;
22034;SDS011;11181;51.002;4.356;2022-07-23T14:27:23;2.65;;;1.98;;
22034;SDS011;11181;51.002;4.356;2022-07-23T14:29:51;3.45;;;2.38;;
22034;SDS011;11181;51.002;4.356;2022-07-23T14:32:19;2.88;;;2.03;;
22034;SDS011;11181;51.002;4.356;2022-07-23T14:34:47;3.05;;;2.53;;
22034;SDS011;11181;51.002;4.356;2022-07-23T14:37:14;4.00;;;2.35;;
22034;SDS011;11181;51.002;4.356;2022-07-23T14:39:42;3.22;;;2.55;;
22034;SDS011;11181;51.002;4.356;2022-07-23T14:42:09;4.30;;;2.70;;
22034;SDS011;11181;51.002;4.356;2022-07-23T14:44:36;3.53;;;2.80;;
22034;SDS011;11181;51.002;4.356;2022-07-23T14:47:04;4.20;;;2.40;;
22034;SDS011;11181;51.002;4.356;2022-07-23T14:49:33;4.95;;;3.00;;
22034;SDS011;11181;51.002;4.356;2022-07-23T14:52:01;2.45;;;2.25;;
22034;SDS011;11181;51.002;4.356;2022-07-23T14:54:29;2.60;;;2.40;;
22034;SDS011;11181;51.002;4.356;2022-07-23T14:56:56;3.47;;;2.90;;
22034;SDS011;11181;51.002;4.356;2022-07-23T14:59:25;2.63;;;2.42;;
22034;SDS011;11181;51.002;4.356;2022-07-23T15:01:52;4.65;;;2.38;;
22034;SDS011;11181;51.002;4.356;2022-07-23T15:04:20;2.50;;;2.30;;
22034;SDS011;11181;51.002;4.356;2022-07-23T15:06:48;3.22;;;2.47;;